sensor_id;sensor_type;location;lat;lon;timestamp;temperature;humidity
13684;DHT22;6914;53.552;9.908;2022-07-05T00:01:25;15.10;99.90
13684;DHT22;6914;53.552;9.908;2022-07-05T00:03:54;15.00;99.90
13684;DHT22;6914;53.552;9.908;2022-07-05T00:06:30;15.00;99.90
13684;DHT22;6914;53.552;9.908;2022-07-05T00:09:39;14.90;99.90
13684;DHT22;6914;53.552;9.908;2022-07-05T00:12:26;14.90;99.90
13684;DHT22;6914;53.552;9.908;2022-07-05T00:15:00;14.80;99.90
13684;DHT22;6914;53.552;9.908;2022-07-05T00:17:32;14.70;99.90
13684;DHT22;6914;53.552;9.908;2022-07-05T00:20:19;14.70;99.90
13684;DHT22;6914;53.552;9.908;2022-07-05T00:22:54;14.70;99.90
13684;DHT22;6914;53.552;9.908;2022-07-05T00:25:33;14.60;99.90
13684;DHT22;6914;53.552;9.908;2022-07-05T00:28:10;14.60;99.90
13684;DHT22;6914;53.552;9.908;2022-07-05T00:30:41;14.60;99.90
13684;DHT22;6914;53.552;9.908;2022-07-05T00:33:17;14.50;99.90
13684;DHT22;6914;53.552;9.908;2022-07-05T00:35:48;14.50;99.90
13684;DHT22;6914;53.552;9.908;2022-07-05T00:38:21;14.40;99.90
13684;DHT22;6914;53.552;9.908;2022-07-05T00:40:51;14.40;99.90
13684;DHT22;6914;53.552;9.908;2022-07-05T00:43:21;14.40;99.90
13684;DHT22;6914;53.552;9.908;2022-07-05T00:45:58;14.40;99.90
13684;DHT22;6914;53.552;9.908;2022-07-05T00:48:30;14.30;99.90
13684;DHT22;6914;53.552;9.908;2022-07-05T00:51:16;14.30;99.90
13684;DHT22;6914;53.552;9.908;2022-07-05T00:54:06;14.30;99.90
13684;DHT22;6914;53.552;9.908;2022-07-05T00:56:57;14.30;99.90
13684;DHT22;6914;53.552;9.908;2022-07-05T00:59:35;14.20;99.90
13684;DHT22;6914;53.552;9.908;2022-07-05T01:02:10;14.20;99.90
13684;DHT22;6914;53.552;9.908;2022-07-05T01:04:40;14.20;99.90
13684;DHT22;6914;53.552;9.908;2022-07-05T01:07:09;14.20;99.90
13684;DHT22;6914;53.552;9.908;2022-07-05T01:09:41;14.20;99.90
13684;DHT22;6914;53.552;9.908;2022-07-05T01:12:19;14.10;99.90
13684;DHT22;6914;53.552;9.908;2022-07-05T01:14:57;14.10;99.90
13684;DHT22;6914;53.552;9.908;2022-07-05T01:17:28;14.10;99.90
13684;DHT22;6914;53.552;9.908;2022-07-05T01:20:08;14.10;99.90
13684;DHT22;6914;53.552;9.908;2022-07-05T01:22:51;14.10;99.90
13684;DHT22;6914;53.552;9.908;2022-07-05T01:25:20;14.10;99.90
13684;DHT22;6914;53.552;9.908;2022-07-05T01:27:48;14.10;99.90
13684;DHT22;6914;53.552;9.908;2022-07-05T01:30:15;14.00;99.90
13684;DHT22;6914;53.552;9.908;2022-07-05T01:32:43;14.10;99.90
13684;DHT22;6914;53.552;9.908;2022-07-05T01:35:11;14.10;99.90
13684;DHT22;6914;53.552;9.908;2022-07-05T01:37:39;14.00;99.90
13684;DHT22;6914;53.552;9.908;2022-07-05T01:40:08;14.00;99.90
13684;DHT22;6914;53.552;9.908;2022-07-05T01:42:36;14.00;99.90
13684;DHT22;6914;53.552;9.908;2022-07-05T01:45:04;13.90;99.90
13684;DHT22;6914;53.552;9.908;2022-07-05T01:47:32;13.80;99.90
13684;DHT22;6914;53.552;9.908;2022-07-05T01:50:04;13.90;99.90
13684;DHT22;6914;53.552;9.908;2022-07-05T01:52:32;13.80;99.90
13684;DHT22;6914;53.552;9.908;2022-07-05T01:55:00;13.70;99.90
13684;DHT22;6914;53.552;9.908;2022-07-05T01:57:29;13.70;99.90
13684;DHT22;6914;53.552;9.908;2022-07-05T01:59:57;13.70;99.90
13684;DHT22;6914;53.552;9.908;2022-07-05T02:02:24;13.60;99.90
13684;DHT22;6914;53.552;9.908;2022-07-05T02:04:51;13.60;99.90
13684;DHT22;6914;53.552;9.908;2022-07-05T02:07:18;13.50;99.90
13684;DHT22;6914;53.552;9.908;2022-07-05T02:09:45;13.50;99.90
13684;DHT22;6914;53.552;9.908;2022-07-05T02:12:12;13.40;99.90
13684;DHT22;6914;53.552;9.908;2022-07-05T02:14:40;13.40;99.90
13684;DHT22;6914;53.552;9.908;2022-07-05T02:17:08;13.30;99.90
13684;DHT22;6914;53.552;9.908;2022-07-05T02:19:35;13.50;99.90
13684;DHT22;6914;53.552;9.908;2022-07-05T02:22:04;13.20;99.90
13684;DHT22;6914;53.552;9.908;2022-07-05T02:24:31;13.20;99.90
13684;DHT22;6914;53.552;9.908;2022-07-05T02:26:58;13.20;99.90
13684;DHT22;6914;53.552;9.908;2022-07-05T02:29:25;13.10;99.90
13684;DHT22;6914;53.552;9.908;2022-07-05T02:31:54;13.10;99.90
13684;DHT22;6914;53.552;9.908;2022-07-05T02:34:21;13.00;99.90
13684;DHT22;6914;53.552;9.908;2022-07-05T02:36:48;13.00;99.90
13684;DHT22;6914;53.552;9.908;2022-07-05T02:39:15;12.90;99.90
13684;DHT22;6914;53.552;9.908;2022-07-05T02:41:42;12.90;99.90
13684;DHT22;6914;53.552;9.908;2022-07-05T02:44:09;12.90;99.90
13684;DHT22;6914;53.552;9.908;2022-07-05T02:46:36;12.80;99.90
13684;DHT22;6914;53.552;9.908;2022-07-05T02:49:05;12.80;99.90
13684;DHT22;6914;53.552;9.908;2022-07-05T02:51:32;12.80;99.90
13684;DHT22;6914;53.552;9.908;2022-07-05T02:53:59;12.70;99.90
13684;DHT22;6914;53.552;9.908;2022-07-05T02:56:26;12.70;99.90
13684;DHT22;6914;53.552;9.908;2022-07-05T02:58:53;12.70;99.90
13684;DHT22;6914;53.552;9.908;2022-07-05T03:01:20;12.70;99.90
13684;DHT22;6914;53.552;9.908;2022-07-05T03:03:47;12.70;99.90
13684;DHT22;6914;53.552;9.908;2022-07-05T03:06:16;12.70;99.90
13684;DHT22;6914;53.552;9.908;2022-07-05T03:08:43;12.70;99.90
13684;DHT22;6914;53.552;9.908;2022-07-05T03:11:10;12.60;99.90
13684;DHT22;6914;53.552;9.908;2022-07-05T03:13:37;12.60;99.90
13684;DHT22;6914;53.552;9.908;2022-07-05T03:16:04;12.60;99.90
13684;DHT22;6914;53.552;9.908;2022-07-05T03:18:31;12.50;99.90
13684;DHT22;6914;53.552;9.908;2022-07-05T03:20:59;12.50;99.90
13684;DHT22;6914;53.552;9.908;2022-07-05T03:23:27;12.50;99.90
13684;DHT22;6914;53.552;9.908;2022-07-05T03:25:54;12.60;99.90
13684;DHT22;6914;53.552;9.908;2022-07-05T03:28:21;12.50;99.90
13684;DHT22;6914;53.552;9.908;2022-07-05T03:30:48;12.50;99.90
13684;DHT22;6914;53.552;9.908;2022-07-05T03:33:15;12.50;99.90
13684;DHT22;6914;53.552;9.908;2022-07-05T03:35:42;12.50;99.90
13684;DHT22;6914;53.552;9.908;2022-07-05T03:38:09;12.50;99.90
13684;DHT22;6914;53.552;9.908;2022-07-05T03:40:38;12.50;99.90
13684;DHT22;6914;53.552;9.908;2022-07-05T03:43:05;12.50;99.90
13684;DHT22;6914;53.552;9.908;2022-07-05T03:45:32;12.50;99.90
13684;DHT22;6914;53.552;9.908;2022-07-05T03:47:59;12.50;99.90
13684;DHT22;6914;53.552;9.908;2022-07-05T03:50:27;12.40;99.90
13684;DHT22;6914;53.552;9.908;2022-07-05T03:52:54;12.50;99.90
13684;DHT22;6914;53.552;9.908;2022-07-05T03:55:21;12.50;99.90
13684;DHT22;6914;53.552;9.908;2022-07-05T03:57:50;12.50;99.90
13684;DHT22;6914;53.552;9.908;2022-07-05T04:00:17;12.50;99.90
13684;DHT22;6914;53.552;9.908;2022-07-05T04:02:44;12.50;99.90
13684;DHT22;6914;53.552;9.908;2022-07-05T04:05:11;12.60;99.90
13684;DHT22;6914;53.552;9.908;2022-07-05T04:07:48;12.60;99.90
13684;DHT22;6914;53.552;9.908;2022-07-05T04:10:15;12.60;99.90
13684;DHT22;6914;53.552;9.908;2022-07-05T04:12:42;12.70;99.90
13684;DHT22;6914;53.552;9.908;2022-07-05T04:15:11;12.70;99.90
13684;DHT22;6914;53.552;9.908;2022-07-05T04:17:46;12.70;99.90
13684;DHT22;6914;53.552;9.908;2022-07-05T04:20:13;12.70;99.90
13684;DHT22;6914;53.552;9.908;2022-07-05T04:22:41;12.80;99.90
13684;DHT22;6914;53.552;9.908;2022-07-05T04:25:09;12.80;99.90
13684;DHT22;6914;53.552;9.908;2022-07-05T04:27:45;12.80;99.90
13684;DHT22;6914;53.552;9.908;2022-07-05T04:30:15;12.80;99.90
13684;DHT22;6914;53.552;9.908;2022-07-05T04:32:43;12.90;99.90
13684;DHT22;6914;53.552;9.908;2022-07-05T04:35:10;12.90;99.90
13684;DHT22;6914;53.552;9.908;2022-07-05T04:37:38;12.90;99.90
13684;DHT22;6914;53.552;9.908;2022-07-05T04:40:06;13.00;99.90
13684;DHT22;6914;53.552;9.908;2022-07-05T04:42:35;13.00;99.90
13684;DHT22;6914;53.552;9.908;2022-07-05T04:45:03;13.10;99.90
13684;DHT22;6914;53.552;9.908;2022-07-05T04:47:32;13.20;99.90
13684;DHT22;6914;53.552;9.908;2022-07-05T04:50:00;13.30;99.90
13684;DHT22;6914;53.552;9.908;2022-07-05T04:52:27;13.30;99.90
13684;DHT22;6914;53.552;9.908;2022-07-05T04:54:54;13.40;99.90
13684;DHT22;6914;53.552;9.908;2022-07-05T04:57:21;13.40;99.90
13684;DHT22;6914;53.552;9.908;2022-07-05T04:59:48;13.40;99.90
13684;DHT22;6914;53.552;9.908;2022-07-05T05:02:15;13.50;99.90
13684;DHT22;6914;53.552;9.908;2022-07-05T05:04:44;13.50;99.90
13684;DHT22;6914;53.552;9.908;2022-07-05T05:07:11;13.50;99.90
13684;DHT22;6914;53.552;9.908;2022-07-05T05:09:38;13.60;99.90
13684;DHT22;6914;53.552;9.908;2022-07-05T05:12:06;13.70;99.90
13684;DHT22;6914;53.552;9.908;2022-07-05T05:14:33;13.70;99.90
13684;DHT22;6914;53.552;9.908;2022-07-05T05:17:00;13.80;99.90
13684;DHT22;6914;53.552;9.908;2022-07-05T05:19:28;13.80;99.90
13684;DHT22;6914;53.552;9.908;2022-07-05T05:21:56;13.90;99.90
13684;DHT22;6914;53.552;9.908;2022-07-05T05:24:23;13.90;99.90
13684;DHT22;6914;53.552;9.908;2022-07-05T05:26:50;13.90;99.90
13684;DHT22;6914;53.552;9.908;2022-07-05T05:29:17;14.00;99.90
13684;DHT22;6914;53.552;9.908;2022-07-05T05:31:46;14.00;99.90
13684;DHT22;6914;53.552;9.908;2022-07-05T05:34:13;14.00;99.90
13684;DHT22;6914;53.552;9.908;2022-07-05T05:36:40;13.90;99.90
13684;DHT22;6914;53.552;9.908;2022-07-05T05:39:09;14.00;99.90
13684;DHT22;6914;53.552;9.908;2022-07-05T05:41:36;14.10;99.90
13684;DHT22;6914;53.552;9.908;2022-07-05T05:44:04;14.20;99.90
13684;DHT22;6914;53.552;9.908;2022-07-05T05:46:31;14.20;99.90
13684;DHT22;6914;53.552;9.908;2022-07-05T05:48:58;14.30;99.90
13684;DHT22;6914;53.552;9.908;2022-07-05T05:51:25;14.40;99.90
13684;DHT22;6914;53.552;9.908;2022-07-05T05:53:52;14.50;99.90
13684;DHT22;6914;53.552;9.908;2022-07-05T05:56:20;14.60;99.90
13684;DHT22;6914;53.552;9.908;2022-07-05T05:58:47;14.70;99.90
13684;DHT22;6914;53.552;9.908;2022-07-05T06:01:14;14.70;99.90
13684;DHT22;6914;53.552;9.908;2022-07-05T06:03:41;14.80;99.90
13684;DHT22;6914;53.552;9.908;2022-07-05T06:06:09;14.90;99.90
13684;DHT22;6914;53.552;9.908;2022-07-05T06:08:36;15.00;99.90
13684;DHT22;6914;53.552;9.908;2022-07-05T06:11:03;15.10;99.90
13684;DHT22;6914;53.552;9.908;2022-07-05T06:13:32;15.10;99.90
13684;DHT22;6914;53.552;9.908;2022-07-05T06:15:59;15.20;99.90
13684;DHT22;6914;53.552;9.908;2022-07-05T06:18:26;15.30;99.90
13684;DHT22;6914;53.552;9.908;2022-07-05T06:20:53;15.30;99.90
13684;DHT22;6914;53.552;9.908;2022-07-05T06:23:20;15.30;99.90
13684;DHT22;6914;53.552;9.908;2022-07-05T06:25:47;15.50;99.90
13684;DHT22;6914;53.552;9.908;2022-07-05T06:28:14;15.60;99.90
13684;DHT22;6914;53.552;9.908;2022-07-05T06:30:44;15.60;99.90
13684;DHT22;6914;53.552;9.908;2022-07-05T06:33:11;15.80;99.90
13684;DHT22;6914;53.552;9.908;2022-07-05T06:35:38;16.00;99.90
13684;DHT22;6914;53.552;9.908;2022-07-05T06:38:06;16.10;99.90
13684;DHT22;6914;53.552;9.908;2022-07-05T06:40:35;16.20;99.90
13684;DHT22;6914;53.552;9.908;2022-07-05T06:43:04;16.30;99.90
13684;DHT22;6914;53.552;9.908;2022-07-05T06:45:31;16.30;99.90
13684;DHT22;6914;53.552;9.908;2022-07-05T06:48:01;16.40;99.90
13684;DHT22;6914;53.552;9.908;2022-07-05T06:50:30;16.60;99.90
13684;DHT22;6914;53.552;9.908;2022-07-05T06:52:57;17.00;99.90
13684;DHT22;6914;53.552;9.908;2022-07-05T06:55:25;17.20;99.90
13684;DHT22;6914;53.552;9.908;2022-07-05T06:57:57;17.40;99.90
13684;DHT22;6914;53.552;9.908;2022-07-05T07:00:26;17.50;99.90
13684;DHT22;6914;53.552;9.908;2022-07-05T07:02:53;17.60;99.90
13684;DHT22;6914;53.552;9.908;2022-07-05T07:05:21;17.90;99.90
13684;DHT22;6914;53.552;9.908;2022-07-05T07:07:54;18.00;99.90
13684;DHT22;6914;53.552;9.908;2022-07-05T07:10:38;18.20;99.90
13684;DHT22;6914;53.552;9.908;2022-07-05T07:13:05;18.20;99.90
13684;DHT22;6914;53.552;9.908;2022-07-05T07:15:32;18.20;99.90
13684;DHT22;6914;53.552;9.908;2022-07-05T07:18:00;18.20;99.90
13684;DHT22;6914;53.552;9.908;2022-07-05T07:20:29;18.30;99.90
13684;DHT22;6914;53.552;9.908;2022-07-05T07:22:56;18.30;99.90
13684;DHT22;6914;53.552;9.908;2022-07-05T07:25:23;18.30;99.90
13684;DHT22;6914;53.552;9.908;2022-07-05T07:27:51;18.30;99.90
13684;DHT22;6914;53.552;9.908;2022-07-05T07:30:22;18.50;99.90
13684;DHT22;6914;53.552;9.908;2022-07-05T07:32:49;18.60;99.90
13684;DHT22;6914;53.552;9.908;2022-07-05T07:35:16;18.80;99.90
13684;DHT22;6914;53.552;9.908;2022-07-05T07:37:45;18.90;99.90
13684;DHT22;6914;53.552;9.908;2022-07-05T07:40:12;18.80;99.90
13684;DHT22;6914;53.552;9.908;2022-07-05T07:42:39;18.70;99.90
13684;DHT22;6914;53.552;9.908;2022-07-05T07:45:07;18.70;99.90
13684;DHT22;6914;53.552;9.908;2022-07-05T07:47:36;18.40;99.90
13684;DHT22;6914;53.552;9.908;2022-07-05T07:50:04;18.30;99.90
13684;DHT22;6914;53.552;9.908;2022-07-05T07:52:32;18.30;99.90
13684;DHT22;6914;53.552;9.908;2022-07-05T07:55:01;18.20;99.90
13684;DHT22;6914;53.552;9.908;2022-07-05T07:57:28;18.20;99.90
13684;DHT22;6914;53.552;9.908;2022-07-05T07:59:55;18.20;99.90
13684;DHT22;6914;53.552;9.908;2022-07-05T08:02:23;18.10;99.90
13684;DHT22;6914;53.552;9.908;2022-07-05T08:04:50;18.10;99.90
13684;DHT22;6914;53.552;9.908;2022-07-05T08:07:18;18.10;99.90
13684;DHT22;6914;53.552;9.908;2022-07-05T08:09:46;18.10;99.90
13684;DHT22;6914;53.552;9.908;2022-07-05T08:12:14;18.20;99.90
13684;DHT22;6914;53.552;9.908;2022-07-05T08:14:41;18.30;99.90
13684;DHT22;6914;53.552;9.908;2022-07-05T08:17:08;18.20;99.90
13684;DHT22;6914;53.552;9.908;2022-07-05T08:19:36;18.30;99.90
13684;DHT22;6914;53.552;9.908;2022-07-05T08:22:21;18.50;99.90
13684;DHT22;6914;53.552;9.908;2022-07-05T08:24:49;18.70;99.90
13684;DHT22;6914;53.552;9.908;2022-07-05T08:27:18;18.80;99.90
13684;DHT22;6914;53.552;9.908;2022-07-05T08:29:45;19.00;99.90
13684;DHT22;6914;53.552;9.908;2022-07-05T08:32:12;19.10;99.90
13684;DHT22;6914;53.552;9.908;2022-07-05T08:34:39;19.30;99.90
13684;DHT22;6914;53.552;9.908;2022-07-05T08:37:07;19.50;99.50
13684;DHT22;6914;53.552;9.908;2022-07-05T08:39:34;19.60;98.90
13684;DHT22;6914;53.552;9.908;2022-07-05T08:42:02;19.80;97.90
13684;DHT22;6914;53.552;9.908;2022-07-05T08:44:33;20.00;99.20
13684;DHT22;6914;53.552;9.908;2022-07-05T08:47:08;20.20;95.80
13684;DHT22;6914;53.552;9.908;2022-07-05T08:49:37;20.30;87.60
13684;DHT22;6914;53.552;9.908;2022-07-05T08:52:09;20.10;89.70
13684;DHT22;6914;53.552;9.908;2022-07-05T08:54:37;19.90;84.60
13684;DHT22;6914;53.552;9.908;2022-07-05T08:57:04;20.10;80.00
13684;DHT22;6914;53.552;9.908;2022-07-05T08:59:33;20.30;81.80
13684;DHT22;6914;53.552;9.908;2022-07-05T09:02:00;20.30;85.70
13684;DHT22;6914;53.552;9.908;2022-07-05T09:04:30;20.40;71.80
13684;DHT22;6914;53.552;9.908;2022-07-05T09:07:03;20.50;73.70
13684;DHT22;6914;53.552;9.908;2022-07-05T09:09:33;20.70;75.50
13684;DHT22;6914;53.552;9.908;2022-07-05T09:12:03;20.50;66.80
13684;DHT22;6914;53.552;9.908;2022-07-05T09:14:31;20.30;69.20
13684;DHT22;6914;53.552;9.908;2022-07-05T09:16:59;20.10;70.70
13684;DHT22;6914;53.552;9.908;2022-07-05T09:19:27;20.10;75.60
13684;DHT22;6914;53.552;9.908;2022-07-05T09:22:04;20.20;69.00
13684;DHT22;6914;53.552;9.908;2022-07-05T09:24:31;20.20;65.80
13684;DHT22;6914;53.552;9.908;2022-07-05T09:27:02;20.50;67.10
13684;DHT22;6914;53.552;9.908;2022-07-05T09:29:30;20.70;61.50
13684;DHT22;6914;53.552;9.908;2022-07-05T09:31:59;20.80;65.50
13684;DHT22;6914;53.552;9.908;2022-07-05T09:34:28;20.80;62.70
13684;DHT22;6914;53.552;9.908;2022-07-05T09:36:58;20.70;60.00
13684;DHT22;6914;53.552;9.908;2022-07-05T09:39:38;20.90;54.80
13684;DHT22;6914;53.552;9.908;2022-07-05T09:42:14;21.20;55.20
13684;DHT22;6914;53.552;9.908;2022-07-05T09:44:45;21.40;56.30
13684;DHT22;6914;53.552;9.908;2022-07-05T09:47:15;21.70;51.40
13684;DHT22;6914;53.552;9.908;2022-07-05T09:49:43;22.00;51.40
13684;DHT22;6914;53.552;9.908;2022-07-05T09:52:11;22.70;51.80
13684;DHT22;6914;53.552;9.908;2022-07-05T09:55:00;23.90;50.60
13684;DHT22;6914;53.552;9.908;2022-07-05T09:57:28;25.30;48.70
13684;DHT22;6914;53.552;9.908;2022-07-05T09:59:58;26.30;45.40
13684;DHT22;6914;53.552;9.908;2022-07-05T10:02:35;26.80;44.90
13684;DHT22;6914;53.552;9.908;2022-07-05T10:05:10;26.10;44.60
13684;DHT22;6914;53.552;9.908;2022-07-05T10:07:39;26.00;43.60
13684;DHT22;6914;53.552;9.908;2022-07-05T10:10:08;26.80;41.40
13684;DHT22;6914;53.552;9.908;2022-07-05T10:12:36;27.30;41.60
13684;DHT22;6914;53.552;9.908;2022-07-05T10:15:05;28.20;41.40
13684;DHT22;6914;53.552;9.908;2022-07-05T10:17:37;29.00;41.10
13684;DHT22;6914;53.552;9.908;2022-07-05T10:20:12;29.60;38.80
13684;DHT22;6914;53.552;9.908;2022-07-05T10:22:41;29.50;37.60
13684;DHT22;6914;53.552;9.908;2022-07-05T10:25:09;28.90;37.60
13684;DHT22;6914;53.552;9.908;2022-07-05T10:27:37;28.80;37.00
13684;DHT22;6914;53.552;9.908;2022-07-05T10:30:05;27.10;38.10
13684;DHT22;6914;53.552;9.908;2022-07-05T10:32:35;25.70;41.10
13684;DHT22;6914;53.552;9.908;2022-07-05T10:35:03;25.10;41.80
13684;DHT22;6914;53.552;9.908;2022-07-05T10:37:32;24.60;43.20
13684;DHT22;6914;53.552;9.908;2022-07-05T10:40:02;24.30;43.60
13684;DHT22;6914;53.552;9.908;2022-07-05T10:42:33;25.20;44.00
13684;DHT22;6914;53.552;9.908;2022-07-05T10:45:02;26.50;43.50
13684;DHT22;6914;53.552;9.908;2022-07-05T10:47:29;26.10;41.60
13684;DHT22;6914;53.552;9.908;2022-07-05T10:50:04;25.80;41.40
13684;DHT22;6914;53.552;9.908;2022-07-05T10:52:32;25.70;41.90
13684;DHT22;6914;53.552;9.908;2022-07-05T10:55:21;26.10;41.10
13684;DHT22;6914;53.552;9.908;2022-07-05T10:58:25;25.30;41.10
13684;DHT22;6914;53.552;9.908;2022-07-05T11:04:27;24.50;43.30
13684;DHT22;6914;53.552;9.908;2022-07-05T11:07:00;23.80;44.10
13684;DHT22;6914;53.552;9.908;2022-07-05T11:09:27;23.20;44.80
13684;DHT22;6914;53.552;9.908;2022-07-05T11:12:14;22.90;45.30
13684;DHT22;6914;53.552;9.908;2022-07-05T11:14:46;24.00;45.50
13684;DHT22;6914;53.552;9.908;2022-07-05T11:17:19;25.20;42.60
13684;DHT22;6914;53.552;9.908;2022-07-05T11:20:12;26.10;41.60
13684;DHT22;6914;53.552;9.908;2022-07-05T11:25:28;27.50;39.80
13684;DHT22;6914;53.552;9.908;2022-07-05T11:28:00;27.90;38.00
13684;DHT22;6914;53.552;9.908;2022-07-05T11:30:28;28.70;38.10
13684;DHT22;6914;53.552;9.908;2022-07-05T11:32:59;28.60;36.70
13684;DHT22;6914;53.552;9.908;2022-07-05T11:35:31;27.80;36.50
13684;DHT22;6914;53.552;9.908;2022-07-05T11:38:03;27.00;38.10
13684;DHT22;6914;53.552;9.908;2022-07-05T11:40:33;26.40;39.10
13684;DHT22;6914;53.552;9.908;2022-07-05T11:43:02;26.70;40.50
13684;DHT22;6914;53.552;9.908;2022-07-05T11:45:30;27.30;40.60
13684;DHT22;6914;53.552;9.908;2022-07-05T11:47:58;27.90;40.90
13684;DHT22;6914;53.552;9.908;2022-07-05T11:50:27;28.50;39.40
13684;DHT22;6914;53.552;9.908;2022-07-05T11:52:54;28.40;39.40
13684;DHT22;6914;53.552;9.908;2022-07-05T11:55:25;27.90;38.80
13684;DHT22;6914;53.552;9.908;2022-07-05T11:57:54;27.50;39.20
13684;DHT22;6914;53.552;9.908;2022-07-05T12:00:32;27.90;39.30
13684;DHT22;6914;53.552;9.908;2022-07-05T12:03:05;28.20;38.90
13684;DHT22;6914;53.552;9.908;2022-07-05T12:05:37;28.70;39.20
13684;DHT22;6914;53.552;9.908;2022-07-05T12:08:04;29.20;36.40
13684;DHT22;6914;53.552;9.908;2022-07-05T12:10:33;29.10;36.50
13684;DHT22;6914;53.552;9.908;2022-07-05T12:13:27;28.40;35.80
13684;DHT22;6914;53.552;9.908;2022-07-05T12:15:59;28.00;37.40
13684;DHT22;6914;53.552;9.908;2022-07-05T12:18:27;28.00;38.20
13684;DHT22;6914;53.552;9.908;2022-07-05T12:20:55;27.30;37.90
13684;DHT22;6914;53.552;9.908;2022-07-05T12:23:26;26.50;39.40
13684;DHT22;6914;53.552;9.908;2022-07-05T12:25:58;25.80;40.40
13684;DHT22;6914;53.552;9.908;2022-07-05T12:28:26;25.40;41.20
13684;DHT22;6914;53.552;9.908;2022-07-05T12:30:53;25.30;41.30
13684;DHT22;6914;53.552;9.908;2022-07-05T12:33:21;25.70;42.50
13684;DHT22;6914;53.552;9.908;2022-07-05T12:35:48;25.50;41.70
13684;DHT22;6914;53.552;9.908;2022-07-05T12:38:18;25.30;42.10
13684;DHT22;6914;53.552;9.908;2022-07-05T12:40:47;24.80;42.20
13684;DHT22;6914;53.552;9.908;2022-07-05T12:43:17;24.60;43.20
13684;DHT22;6914;53.552;9.908;2022-07-05T12:46:01;24.20;44.10
13684;DHT22;6914;53.552;9.908;2022-07-05T12:48:33;23.90;44.90
13684;DHT22;6914;53.552;9.908;2022-07-05T12:51:02;24.40;45.50
13684;DHT22;6914;53.552;9.908;2022-07-05T12:53:30;24.70;44.90
13684;DHT22;6914;53.552;9.908;2022-07-05T12:56:15;24.80;44.60
13684;DHT22;6914;53.552;9.908;2022-07-05T12:59:03;24.60;45.40
13684;DHT22;6914;53.552;9.908;2022-07-05T13:01:33;24.60;45.90
13684;DHT22;6914;53.552;9.908;2022-07-05T13:04:04;24.60;45.60
13684;DHT22;6914;53.552;9.908;2022-07-05T13:06:45;24.40;45.30
13684;DHT22;6914;53.552;9.908;2022-07-05T13:09:15;24.30;45.70
13684;DHT22;6914;53.552;9.908;2022-07-05T13:11:43;24.30;45.80
13684;DHT22;6914;53.552;9.908;2022-07-05T13:14:11;23.80;46.00
13684;DHT22;6914;53.552;9.908;2022-07-05T13:16:40;23.30;45.90
13684;DHT22;6914;53.552;9.908;2022-07-05T13:19:11;23.20;47.00
13684;DHT22;6914;53.552;9.908;2022-07-05T13:21:38;22.90;47.40
13684;DHT22;6914;53.552;9.908;2022-07-05T13:24:16;22.80;47.50
13684;DHT22;6914;53.552;9.908;2022-07-05T13:26:44;22.60;47.40
13684;DHT22;6914;53.552;9.908;2022-07-05T13:29:13;22.60;47.60
13684;DHT22;6914;53.552;9.908;2022-07-05T13:31:40;22.50;47.60
13684;DHT22;6914;53.552;9.908;2022-07-05T13:34:07;22.20;47.90
13684;DHT22;6914;53.552;9.908;2022-07-05T13:36:35;22.00;49.40
13684;DHT22;6914;53.552;9.908;2022-07-05T13:39:02;21.80;50.80
13684;DHT22;6914;53.552;9.908;2022-07-05T13:41:31;21.60;52.20
13684;DHT22;6914;53.552;9.908;2022-07-05T13:43:59;21.30;54.10
13684;DHT22;6914;53.552;9.908;2022-07-05T13:46:29;21.10;59.00
13684;DHT22;6914;53.552;9.908;2022-07-05T13:48:56;20.90;67.00
13684;DHT22;6914;53.552;9.908;2022-07-05T13:51:23;20.80;79.90
13684;DHT22;6914;53.552;9.908;2022-07-05T13:53:51;20.80;91.80
13684;DHT22;6914;53.552;9.908;2022-07-05T13:56:18;20.90;92.50
13684;DHT22;6914;53.552;9.908;2022-07-05T13:58:46;21.20;90.10
13684;DHT22;6914;53.552;9.908;2022-07-05T14:01:13;21.50;81.10
13684;DHT22;6914;53.552;9.908;2022-07-05T14:03:42;22.10;65.70
13684;DHT22;6914;53.552;9.908;2022-07-05T14:06:12;22.20;61.20
13684;DHT22;6914;53.552;9.908;2022-07-05T14:08:40;22.40;64.50
13684;DHT22;6914;53.552;9.908;2022-07-05T14:11:08;22.40;69.00
13684;DHT22;6914;53.552;9.908;2022-07-05T14:13:38;22.40;66.60
13684;DHT22;6914;53.552;9.908;2022-07-05T14:16:05;22.30;67.30
13684;DHT22;6914;53.552;9.908;2022-07-05T14:18:33;22.10;70.50
13684;DHT22;6914;53.552;9.908;2022-07-05T14:21:01;22.10;68.50
13684;DHT22;6914;53.552;9.908;2022-07-05T14:23:28;21.80;73.90
13684;DHT22;6914;53.552;9.908;2022-07-05T14:25:57;21.50;88.40
13684;DHT22;6914;53.552;9.908;2022-07-05T14:28:24;21.40;95.20
13684;DHT22;6914;53.552;9.908;2022-07-05T14:30:51;21.30;95.80
13684;DHT22;6914;53.552;9.908;2022-07-05T14:33:19;21.10;95.80
13684;DHT22;6914;53.552;9.908;2022-07-05T14:35:47;20.90;97.60
13684;DHT22;6914;53.552;9.908;2022-07-05T14:38:15;21.00;99.10
13684;DHT22;6914;53.552;9.908;2022-07-05T14:40:42;21.30;99.00
13684;DHT22;6914;53.552;9.908;2022-07-05T14:43:09;21.60;96.30
13684;DHT22;6914;53.552;9.908;2022-07-05T14:45:37;21.60;96.10
13684;DHT22;6914;53.552;9.908;2022-07-05T14:48:05;21.70;96.50
13684;DHT22;6914;53.552;9.908;2022-07-05T14:50:32;21.80;93.00
13684;DHT22;6914;53.552;9.908;2022-07-05T14:52:59;21.80;87.60
13684;DHT22;6914;53.552;9.908;2022-07-05T14:55:35;21.70;84.20
13684;DHT22;6914;53.552;9.908;2022-07-05T14:58:02;21.70;89.60
13684;DHT22;6914;53.552;9.908;2022-07-05T15:00:29;21.60;90.00
13684;DHT22;6914;53.552;9.908;2022-07-05T15:02:58;21.50;91.00
13684;DHT22;6914;53.552;9.908;2022-07-05T15:05:25;21.50;92.20
13684;DHT22;6914;53.552;9.908;2022-07-05T15:07:52;21.60;91.20
13684;DHT22;6914;53.552;9.908;2022-07-05T15:10:19;21.70;88.80
13684;DHT22;6914;53.552;9.908;2022-07-05T15:12:47;21.50;93.20
13684;DHT22;6914;53.552;9.908;2022-07-05T15:15:14;21.60;95.80
13684;DHT22;6914;53.552;9.908;2022-07-05T15:17:42;21.70;92.80
13684;DHT22;6914;53.552;9.908;2022-07-05T15:20:10;21.60;91.50
13684;DHT22;6914;53.552;9.908;2022-07-05T15:22:37;21.40;95.30
13684;DHT22;6914;53.552;9.908;2022-07-05T15:25:05;21.30;97.70
13684;DHT22;6914;53.552;9.908;2022-07-05T15:27:33;21.20;98.40
13684;DHT22;6914;53.552;9.908;2022-07-05T15:30:01;21.30;98.50
13684;DHT22;6914;53.552;9.908;2022-07-05T15:32:29;21.50;98.60
13684;DHT22;6914;53.552;9.908;2022-07-05T15:34:55;21.80;99.30
13684;DHT22;6914;53.552;9.908;2022-07-05T15:37:23;21.80;98.50
13684;DHT22;6914;53.552;9.908;2022-07-05T15:39:50;21.80;98.20
13684;DHT22;6914;53.552;9.908;2022-07-05T15:42:17;21.70;95.90
13684;DHT22;6914;53.552;9.908;2022-07-05T15:44:45;21.40;96.60
13684;DHT22;6914;53.552;9.908;2022-07-05T15:47:14;21.00;97.50
13684;DHT22;6914;53.552;9.908;2022-07-05T15:49:41;20.90;98.90
13684;DHT22;6914;53.552;9.908;2022-07-05T15:52:08;20.90;97.60
13684;DHT22;6914;53.552;9.908;2022-07-05T15:54:36;20.90;98.10
13684;DHT22;6914;53.552;9.908;2022-07-05T15:57:03;20.90;99.90
13684;DHT22;6914;53.552;9.908;2022-07-05T15:59:31;21.00;99.90
13684;DHT22;6914;53.552;9.908;2022-07-05T16:01:58;20.90;99.60
13684;DHT22;6914;53.552;9.908;2022-07-05T16:04:26;20.90;99.80
13684;DHT22;6914;53.552;9.908;2022-07-05T16:06:57;20.90;99.90